createdAt,value
2018-05-13T00:01:04.546Z,22.36
2018-05-13T00:03:31.957Z,22.42
2018-05-13T00:05:59.344Z,22.39
2018-05-13T00:08:26.729Z,22.38
2018-05-13T00:10:54.137Z,22.37
2018-05-13T00:13:21.508Z,22.46
2018-05-13T00:15:48.894Z,22.45
2018-05-13T00:18:16.284Z,22.24
2018-05-13T00:20:43.676Z,22.39
2018-05-13T00:23:11.064Z,22.46
2018-05-13T00:25:38.450Z,22.60
2018-05-13T00:28:05.845Z,22.60
2018-05-13T00:30:33.220Z,22.52
2018-05-13T00:33:00.605Z,22.67
2018-05-13T00:35:27.992Z,22.53
2018-05-13T00:37:55.485Z,22.54
2018-05-13T00:40:22.907Z,22.43
2018-05-13T00:42:50.303Z,22.52
2018-05-13T00:45:17.743Z,22.49
2018-05-13T00:47:45.126Z,22.48
2018-05-13T00:50:12.504Z,22.32
2018-05-13T00:52:39.888Z,22.41
2018-05-13T00:55:07.311Z,22.44
2018-05-13T00:57:34.738Z,22.39
2018-05-13T01:00:02.128Z,22.39
2018-05-13T01:02:29.521Z,22.38
2018-05-13T01:04:56.892Z,22.37
2018-05-13T01:07:24.286Z,22.44
2018-05-13T01:09:51.669Z,22.33
2018-05-13T01:12:19.048Z,22.24
2018-05-13T01:14:46.423Z,22.22
2018-05-13T01:17:13.812Z,22.25
2018-05-13T01:19:41.202Z,22.19
2018-05-13T01:22:08.772Z,22.13
2018-05-13T01:24:36.354Z,22.05
2018-05-13T01:27:03.739Z,22.08
2018-05-13T01:29:31.124Z,22.09
2018-05-13T01:31:58.577Z,21.98
2018-05-13T01:34:25.882Z,22.06
2018-05-13T01:36:53.282Z,21.99
2018-05-13T01:39:20.693Z,21.89
2018-05-13T01:41:48.098Z,21.85
2018-05-13T01:44:15.494Z,21.88
2018-05-13T01:46:42.884Z,21.86
2018-05-13T01:49:10.269Z,21.85
2018-05-13T01:51:37.661Z,21.88
2018-05-13T01:54:06.036Z,21.78
2018-05-13T01:56:33.435Z,21.69
2018-05-13T01:59:00.816Z,21.65
2018-05-13T02:01:28.207Z,21.74
2018-05-13T02:03:55.717Z,21.75
2018-05-13T02:06:23.139Z,21.75
2018-05-13T02:08:50.531Z,21.49
2018-05-13T02:11:17.982Z,21.59
2018-05-13T02:13:45.385Z,21.44
2018-05-13T02:16:12.993Z,21.50
2018-05-13T02:18:40.678Z,21.44
2018-05-13T02:21:08.094Z,21.32
2018-05-13T02:23:35.508Z,21.29
2018-05-13T02:26:02.968Z,21.31
2018-05-13T02:28:30.344Z,21.29
2018-05-13T02:30:58.018Z,21.15
2018-05-13T02:33:25.402Z,20.88
2018-05-13T02:35:52.782Z,21.04
2018-05-13T02:38:20.180Z,20.87
2018-05-13T02:40:47.579Z,20.70
2018-05-13T02:43:14.977Z,20.98
2018-05-13T02:45:42.351Z,20.96
2018-05-13T02:48:09.761Z,20.77
2018-05-13T02:50:37.136Z,20.79
2018-05-13T02:53:05.374Z,20.52
2018-05-13T02:55:32.760Z,20.34
2018-05-13T02:58:00.148Z,20.43
2018-05-13T03:00:27.523Z,20.59
2018-05-13T03:02:54.916Z,20.59
2018-05-13T03:05:22.316Z,20.34
2018-05-13T03:07:49.712Z,20.33
2018-05-13T03:10:17.103Z,19.97
2018-05-13T03:12:44.503Z,20.03
2018-05-13T03:15:11.876Z,20.37
2018-05-13T03:17:39.268Z,20.59
2018-05-13T03:20:06.656Z,20.60
2018-05-13T03:22:34.036Z,20.64
2018-05-13T03:25:01.427Z,20.36
2018-05-13T03:27:28.825Z,20.05
2018-05-13T03:29:56.208Z,20.07
2018-05-13T03:32:23.622Z,19.90
2018-05-13T03:34:50.995Z,19.89
2018-05-13T03:37:18.392Z,19.86
2018-05-13T03:39:45.788Z,19.87
2018-05-13T03:42:13.190Z,19.80
2018-05-13T03:44:40.572Z,19.82
2018-05-13T03:47:07.963Z,19.91
2018-05-13T03:49:35.904Z,19.93
2018-05-13T03:52:03.317Z,20.20
2018-05-13T03:54:30.699Z,20.27
2018-05-13T03:56:58.116Z,20.20
2018-05-13T03:59:25.547Z,20.06
2018-05-13T04:01:52.894Z,19.71
2018-05-13T04:04:20.300Z,19.66
2018-05-13T04:06:47.721Z,19.57
2018-05-13T04:09:27.047Z,19.83
2018-05-13T04:12:06.139Z,20.14
2018-05-13T04:14:45.338Z,20.13
2018-05-13T04:17:12.738Z,20.35
2018-05-13T04:19:40.146Z,20.47
2018-05-13T04:22:07.520Z,20.41
2018-05-13T04:24:35.840Z,20.42
2018-05-13T04:27:03.216Z,20.56
2018-05-13T04:29:30.612Z,20.25
2018-05-13T04:31:57.990Z,19.92
2018-05-13T04:34:25.402Z,20.37
2018-05-13T04:36:52.769Z,20.50
2018-05-13T04:39:20.164Z,20.21
2018-05-13T04:41:47.546Z,20.38
2018-05-13T04:44:14.942Z,20.55
2018-05-13T04:46:42.322Z,20.48
2018-05-13T04:49:09.721Z,20.67
2018-05-13T04:51:37.135Z,20.43
2018-05-13T04:54:04.520Z,20.54
2018-05-13T04:56:31.899Z,20.60
2018-05-13T04:58:59.304Z,20.64
2018-05-13T05:01:26.673Z,20.65
2018-05-13T05:03:54.058Z,20.79
2018-05-13T05:06:21.432Z,20.81
2018-05-13T05:08:48.847Z,20.86
2018-05-13T05:11:16.210Z,20.69
2018-05-13T05:13:43.600Z,20.64
2018-05-13T05:16:10.980Z,20.66
2018-05-13T05:18:38.373Z,20.79
2018-05-13T05:21:05.959Z,20.73
2018-05-13T05:23:33.358Z,20.77
2018-05-13T05:26:00.736Z,20.81
2018-05-13T05:28:28.674Z,20.75
2018-05-13T05:30:56.055Z,20.85
2018-05-13T05:33:23.450Z,20.42
2018-05-13T05:35:50.952Z,20.47
2018-05-13T05:38:18.233Z,20.55
2018-05-13T05:40:45.612Z,20.61
2018-05-13T05:43:12.999Z,20.71
2018-05-13T05:45:40.380Z,20.78
2018-05-13T05:48:07.769Z,20.85
2018-05-13T05:50:36.115Z,20.89
2018-05-13T05:53:03.515Z,20.64
2018-05-13T05:55:30.896Z,20.87
2018-05-13T05:57:58.291Z,21.12
2018-05-13T06:00:25.684Z,21.12
2018-05-13T06:02:53.243Z,20.95
2018-05-13T06:05:20.627Z,21.14
2018-05-13T06:07:48.012Z,21.04
2018-05-13T06:10:15.418Z,21.07
2018-05-13T06:12:42.825Z,20.95
2018-05-13T06:15:10.231Z,21.08
2018-05-13T06:17:37.615Z,21.01
2018-05-13T06:20:05.014Z,20.91
2018-05-13T06:22:32.395Z,20.91
2018-05-13T06:24:59.812Z,20.85
2018-05-13T06:27:27.202Z,20.95
2018-05-13T06:29:54.600Z,21.03
2018-05-13T06:32:21.988Z,21.08
2018-05-13T06:34:49.384Z,21.11
2018-05-13T06:37:16.767Z,21.16
2018-05-13T06:39:44.227Z,21.16
2018-05-13T06:42:11.547Z,21.18
2018-05-13T06:44:38.932Z,21.27
2018-05-13T06:47:06.458Z,21.39
2018-05-13T06:49:33.846Z,21.35
2018-05-13T06:52:01.236Z,21.32
2018-05-13T06:54:28.630Z,21.48
2018-05-13T06:56:56.019Z,21.58
2018-05-13T06:59:23.414Z,21.68
2018-05-13T07:01:50.792Z,21.59
2018-05-13T07:04:18.181Z,21.14
2018-05-13T07:06:45.572Z,21.63
2018-05-13T07:09:12.957Z,21.26
2018-05-13T07:11:40.343Z,21.31
2018-05-13T07:14:07.733Z,21.44
2018-05-13T07:16:35.106Z,21.48
2018-05-13T07:19:02.499Z,21.77
2018-05-13T07:21:29.878Z,21.87
2018-05-13T07:23:57.272Z,21.86
2018-05-13T07:26:24.651Z,21.86
2018-05-13T07:28:52.051Z,21.76
2018-05-13T07:31:19.429Z,21.81
2018-05-13T07:33:46.814Z,21.99
2018-05-13T07:36:14.196Z,22.02
2018-05-13T07:38:41.586Z,22.03
2018-05-13T07:41:08.963Z,21.97
2018-05-13T07:43:36.654Z,22.16
2018-05-13T07:46:04.040Z,22.08
2018-05-13T07:48:31.429Z,22.10
2018-05-13T07:50:58.826Z,22.23
2018-05-13T07:53:26.216Z,22.25
2018-05-13T07:55:53.599Z,22.23
2018-05-13T07:58:20.976Z,22.32
2018-05-13T08:00:48.413Z,22.16
2018-05-13T08:03:15.802Z,21.67
2018-05-13T08:05:43.178Z,21.96
2018-05-13T08:08:10.562Z,21.90
2018-05-13T08:10:37.965Z,21.80
2018-05-13T08:13:05.351Z,21.83
2018-05-13T08:15:32.746Z,22.01
2018-05-13T08:18:00.146Z,22.29
2018-05-13T08:20:27.638Z,22.16
2018-05-13T08:22:54.919Z,22.42
2018-05-13T08:25:22.306Z,22.34
2018-05-13T08:27:49.687Z,22.34
2018-05-13T08:30:17.080Z,22.15
2018-05-13T08:32:44.460Z,22.38
2018-05-13T08:35:11.858Z,22.49
2018-05-13T08:37:39.243Z,22.34
2018-05-13T08:40:07.522Z,22.34
2018-05-13T08:42:34.900Z,22.42
2018-05-13T08:45:02.617Z,22.62
2018-05-13T08:47:30.000Z,22.62
2018-05-13T08:49:57.399Z,22.82
2018-05-13T08:52:24.773Z,21.98
2018-05-13T08:54:52.178Z,22.49
2018-05-13T08:57:19.555Z,22.63
2018-05-13T08:59:46.955Z,22.64
2018-05-13T09:02:14.636Z,22.62
2018-05-13T09:04:42.023Z,22.56
2018-05-13T09:07:09.401Z,22.45
2018-05-13T09:09:37.070Z,22.52
2018-05-13T09:12:04.492Z,22.92
2018-05-13T09:14:31.881Z,22.75
2018-05-13T09:16:59.250Z,22.66
2018-05-13T09:19:26.650Z,22.98
2018-05-13T09:21:54.044Z,22.94
2018-05-13T09:24:21.444Z,22.87
2018-05-13T09:26:48.830Z,22.69
2018-05-13T09:29:16.263Z,22.65
2018-05-13T09:31:43.648Z,22.76
2018-05-13T09:34:11.015Z,22.81
2018-05-13T09:36:38.382Z,22.86
2018-05-13T09:39:05.774Z,22.72
2018-05-13T09:41:33.147Z,23.22
2018-05-13T09:44:00.539Z,23.02
2018-05-13T09:46:27.910Z,23.01
2018-05-13T09:48:55.351Z,22.98
2018-05-13T09:51:22.764Z,23.06
2018-05-13T09:53:50.102Z,23.04
2018-05-13T09:56:17.474Z,22.96
2018-05-13T09:58:44.843Z,22.82
2018-05-13T10:01:12.225Z,23.09
2018-05-13T10:03:39.591Z,22.99
2018-05-13T10:06:07.360Z,23.14
2018-05-13T10:08:35.123Z,23.20
2018-05-13T10:11:02.511Z,23.20
2018-05-13T10:13:29.886Z,23.44
2018-05-13T10:15:57.274Z,23.40
2018-05-13T10:18:24.663Z,23.28
2018-05-13T10:20:52.855Z,23.64
2018-05-13T10:23:20.236Z,23.52
2018-05-13T10:25:47.627Z,23.63
2018-05-13T10:28:15.108Z,23.74
2018-05-13T10:30:42.490Z,24.24
2018-05-13T10:33:09.863Z,24.11
2018-05-13T10:35:37.486Z,24.31
2018-05-13T10:38:04.876Z,24.48
2018-05-13T10:40:32.263Z,23.82
2018-05-13T10:42:59.642Z,23.64
2018-05-13T10:45:27.023Z,23.50
2018-05-13T10:47:54.429Z,23.94
2018-05-13T10:50:21.810Z,24.22
2018-05-13T10:52:49.191Z,24.14
2018-05-13T10:55:16.572Z,24.00
2018-05-13T10:57:43.997Z,23.92
2018-05-13T11:00:11.328Z,24.11
2018-05-13T11:02:38.705Z,24.28
2018-05-13T11:05:06.092Z,24.59
2018-05-13T11:07:33.465Z,24.63
2018-05-13T11:10:00.846Z,24.84
2018-05-13T11:12:28.226Z,24.49
2018-05-13T11:14:55.626Z,24.19
2018-05-13T11:17:23.009Z,24.18
2018-05-13T11:19:57.344Z,24.20
2018-05-13T11:22:24.720Z,23.99
2018-05-13T11:24:52.123Z,23.99
2018-05-13T11:27:19.505Z,23.95
2018-05-13T11:29:46.882Z,23.81
2018-05-13T11:32:14.278Z,24.08
2018-05-13T11:34:41.648Z,24.17
2018-05-13T11:37:09.030Z,24.23
2018-05-13T11:39:36.405Z,24.17
2018-05-13T11:42:03.798Z,24.24
2018-05-13T11:44:31.201Z,24.41
2018-05-13T11:46:58.588Z,24.41
2018-05-13T11:49:25.972Z,24.40
2018-05-13T11:51:53.365Z,24.82
2018-05-13T11:54:20.740Z,25.21
2018-05-13T11:56:48.136Z,25.52
2018-05-13T11:59:15.507Z,26.32
2018-05-13T12:01:42.894Z,26.89
2018-05-13T12:04:10.270Z,26.90
2018-05-13T12:06:37.824Z,27.27
2018-05-13T12:09:05.232Z,26.63
2018-05-13T12:11:32.603Z,25.88
2018-05-13T12:13:59.982Z,25.96
2018-05-13T12:16:27.469Z,26.60
2018-05-13T12:18:54.806Z,27.17
2018-05-13T12:21:22.185Z,27.41
2018-05-13T12:23:49.567Z,28.11
2018-05-13T12:26:16.956Z,27.93
2018-05-13T12:28:44.342Z,27.97
2018-05-13T12:31:11.719Z,27.51
2018-05-13T12:33:39.101Z,27.65
2018-05-13T12:36:06.466Z,28.46
2018-05-13T12:38:33.939Z,28.71
2018-05-13T12:41:01.326Z,28.75
2018-05-13T12:43:28.707Z,28.81
2018-05-13T12:45:56.148Z,28.24
2018-05-13T12:48:23.587Z,28.26
2018-05-13T12:50:50.975Z,27.83
2018-05-13T12:53:18.349Z,27.27
2018-05-13T12:55:45.742Z,27.19
2018-05-13T12:58:13.120Z,26.93
2018-05-13T13:00:40.500Z,26.50
2018-05-13T13:03:08.291Z,26.43
2018-05-13T13:05:35.678Z,26.37
2018-05-13T13:08:03.050Z,25.99
2018-05-13T13:10:30.568Z,25.95
2018-05-13T13:12:57.998Z,25.62
2018-05-13T13:15:25.303Z,25.73
2018-05-13T13:17:52.668Z,25.60
2018-05-13T13:20:20.069Z,25.41
2018-05-13T13:22:47.448Z,25.48
2018-05-13T13:25:14.874Z,25.31
2018-05-13T13:27:42.259Z,25.39
2018-05-13T13:30:09.635Z,24.95
2018-05-13T13:32:37.008Z,25.24
2018-05-13T13:35:04.428Z,25.24
2018-05-13T13:37:31.808Z,24.97
2018-05-13T13:39:59.187Z,24.64
2018-05-13T13:42:26.571Z,25.31
2018-05-13T13:44:53.962Z,26.47
2018-05-13T13:47:21.383Z,27.77
2018-05-13T13:49:48.719Z,27.26
2018-05-13T13:52:16.128Z,26.65
2018-05-13T13:54:43.488Z,27.01
2018-05-13T13:57:10.862Z,26.57
2018-05-13T13:59:38.599Z,27.19
2018-05-13T14:02:06.034Z,28.00
2018-05-13T14:04:33.398Z,28.46
2018-05-13T14:07:00.799Z,28.60
2018-05-13T14:09:28.159Z,27.41
2018-05-13T14:11:55.626Z,26.69
2018-05-13T14:14:22.934Z,26.13
2018-05-13T14:16:50.314Z,25.85
2018-05-13T14:19:17.727Z,25.91
2018-05-13T14:21:45.115Z,26.15
2018-05-13T14:24:12.493Z,27.60
2018-05-13T14:26:39.886Z,29.05
2018-05-13T14:29:07.301Z,28.10
2018-05-13T14:31:34.689Z,26.85
2018-05-13T14:34:02.098Z,26.29
2018-05-13T14:36:29.479Z,26.06
2018-05-13T14:38:56.854Z,26.31
2018-05-13T14:41:24.235Z,25.87
2018-05-13T14:43:51.623Z,25.95
2018-05-13T14:46:19.027Z,25.91
2018-05-13T14:48:46.408Z,25.49
2018-05-13T14:51:13.779Z,25.37
2018-05-13T14:53:41.169Z,25.22
2018-05-13T14:56:08.731Z,25.20
2018-05-13T14:58:36.132Z,25.11
2018-05-13T15:01:03.571Z,25.17
2018-05-13T15:03:30.950Z,25.30
2018-05-13T15:05:58.331Z,24.98
2018-05-13T15:08:25.710Z,24.87
2018-05-13T15:10:53.094Z,24.83
2018-05-13T15:13:20.486Z,24.86
2018-05-13T15:15:48.554Z,24.78
2018-05-13T15:18:15.935Z,24.72
2018-05-13T15:20:43.310Z,24.63
2018-05-13T15:23:10.697Z,24.67
2018-05-13T15:25:38.818Z,25.09
2018-05-13T15:28:06.192Z,24.79
2018-05-13T15:30:33.579Z,24.77
2018-05-13T15:33:00.975Z,24.57
2018-05-13T15:35:28.358Z,24.79
2018-05-13T15:37:55.750Z,24.37
2018-05-13T15:40:23.126Z,24.24
2018-05-13T15:42:50.619Z,24.17
2018-05-13T15:45:17.971Z,23.73
2018-05-13T15:47:45.338Z,23.67
2018-05-13T15:50:12.757Z,23.85
2018-05-13T15:52:40.260Z,23.72
2018-05-13T15:55:07.703Z,23.78
2018-05-13T15:57:35.019Z,23.96
2018-05-13T16:00:02.421Z,24.27
2018-05-13T16:02:29.803Z,23.95
2018-05-13T16:04:57.499Z,23.83
2018-05-13T16:07:24.907Z,23.81
2018-05-13T16:09:52.292Z,23.69
2018-05-13T16:12:19.770Z,23.56
2018-05-13T16:14:47.047Z,23.85
2018-05-13T16:17:14.432Z,24.45
2018-05-13T16:19:41.808Z,24.26
2018-05-13T16:22:09.191Z,24.18
2018-05-13T16:24:36.568Z,24.19
2018-05-13T16:27:03.958Z,24.05
2018-05-13T16:29:31.336Z,24.26
2018-05-13T16:31:58.715Z,24.11
2018-05-13T16:34:26.087Z,24.41
2018-05-13T16:36:53.480Z,24.45
2018-05-13T16:39:20.856Z,24.58
2018-05-13T16:41:48.259Z,24.31
2018-05-13T16:44:15.654Z,24.20
2018-05-13T16:46:43.030Z,24.10
2018-05-13T16:49:10.410Z,23.82
2018-05-13T16:51:37.820Z,23.99
2018-05-13T16:54:05.180Z,23.90
2018-05-13T16:56:32.779Z,23.89
2018-05-13T16:59:00.150Z,23.66
2018-05-13T17:01:27.525Z,23.61
2018-05-13T17:03:54.904Z,23.63
2018-05-13T17:06:22.302Z,23.58
2018-05-13T17:08:49.689Z,23.77
2018-05-13T17:11:17.054Z,23.79
2018-05-13T17:13:44.442Z,23.65
2018-05-13T17:16:11.825Z,23.51
2018-05-13T17:18:39.312Z,23.41
2018-05-13T17:21:06.683Z,23.63
2018-05-13T17:23:34.152Z,23.74
2018-05-13T17:26:01.448Z,23.57
2018-05-13T17:28:28.831Z,23.37
2018-05-13T17:30:56.214Z,23.14
2018-05-13T17:33:23.599Z,23.04
2018-05-13T17:35:51.015Z,22.94
2018-05-13T17:38:18.404Z,22.77
2018-05-13T17:40:45.779Z,23.05
2018-05-13T17:43:13.173Z,22.77
2018-05-13T17:45:40.552Z,22.56
2018-05-13T17:48:07.930Z,22.63
2018-05-13T17:50:35.302Z,22.64
2018-05-13T17:53:02.697Z,22.65
2018-05-13T17:55:30.094Z,22.65
2018-05-13T17:57:57.499Z,22.54
2018-05-13T18:00:24.866Z,22.59
2018-05-13T18:02:52.252Z,22.57
2018-05-13T18:05:19.628Z,22.35
2018-05-13T18:07:47.006Z,22.08
2018-05-13T18:10:14.482Z,22.18
2018-05-13T18:12:41.882Z,22.16
2018-05-13T18:15:09.549Z,22.03
2018-05-13T18:17:36.936Z,21.93
2018-05-13T18:20:04.339Z,21.68
2018-05-13T18:22:31.755Z,21.69
2018-05-13T18:24:59.122Z,21.65
2018-05-13T18:27:26.523Z,21.83
2018-05-13T18:29:53.919Z,21.76
2018-05-13T18:32:21.302Z,22.04
2018-05-13T18:34:48.675Z,22.08
2018-05-13T18:37:16.054Z,21.98
2018-05-13T18:39:43.678Z,21.89
2018-05-13T18:42:11.054Z,21.90
2018-05-13T18:44:38.494Z,21.95
2018-05-13T18:47:05.823Z,21.89
2018-05-13T18:49:33.208Z,21.90
2018-05-13T18:52:00.602Z,21.82
2018-05-13T18:54:28.039Z,21.79
2018-05-13T18:56:55.414Z,21.61
2018-05-13T18:59:22.814Z,21.52
2018-05-13T19:01:50.192Z,21.66
2018-05-13T19:04:17.730Z,21.72
2018-05-13T19:06:45.119Z,21.64
2018-05-13T19:09:12.499Z,21.66
2018-05-13T19:11:39.883Z,21.57
2018-05-13T19:14:07.266Z,21.62
2018-05-13T19:16:34.645Z,21.54
2018-05-13T19:19:02.047Z,21.49
2018-05-13T19:21:29.407Z,21.39
2018-05-13T19:23:56.788Z,21.34
2018-05-13T19:26:24.162Z,21.24
2018-05-13T19:28:51.547Z,21.22
2018-05-13T19:31:18.954Z,21.34
2018-05-13T19:33:46.318Z,21.14
2018-05-13T19:36:13.698Z,21.16
2018-05-13T19:38:41.090Z,21.15
2018-05-13T19:41:08.467Z,21.15
2018-05-13T19:43:35.860Z,21.24
2018-05-13T19:46:03.251Z,21.39
2018-05-13T19:48:30.614Z,21.47
2018-05-13T19:50:58.000Z,21.59
2018-05-13T19:53:25.395Z,21.45
2018-05-13T19:55:52.778Z,21.36
2018-05-13T19:58:20.175Z,21.23
2018-05-13T20:00:47.648Z,21.36
2018-05-13T20:03:15.065Z,21.20
2018-05-13T20:05:42.417Z,21.00
2018-05-13T20:08:10.005Z,21.22
2018-05-13T20:10:37.443Z,21.19
2018-05-13T20:13:04.811Z,21.29
2018-05-13T20:15:32.191Z,21.28
2018-05-13T20:17:59.586Z,21.30
2018-05-13T20:20:26.965Z,20.98
2018-05-13T20:23:06.399Z,20.86
2018-05-13T20:25:33.960Z,21.04
2018-05-13T20:28:01.554Z,20.90
2018-05-13T20:30:28.976Z,20.81
2018-05-13T20:32:56.371Z,20.60
2018-05-13T20:35:23.771Z,20.72
2018-05-13T20:37:51.162Z,20.75
2018-05-13T20:40:18.727Z,20.74
2018-05-13T20:42:46.286Z,20.58
2018-05-13T20:45:13.751Z,20.52
2018-05-13T20:47:41.152Z,20.54
2018-05-13T20:50:08.537Z,20.37
2018-05-13T20:52:35.927Z,20.32
2018-05-13T20:55:03.329Z,20.20
2018-05-13T20:57:30.699Z,20.25
2018-05-13T20:59:58.230Z,20.48
2018-05-13T21:02:25.686Z,20.14
2018-05-13T21:04:53.091Z,20.18
2018-05-13T21:07:20.483Z,20.27
2018-05-13T21:09:47.882Z,20.32
2018-05-13T21:12:15.911Z,20.21
2018-05-13T21:14:43.305Z,20.27
2018-05-13T21:17:10.677Z,20.18
2018-05-13T21:19:38.077Z,20.03
2018-05-13T21:22:05.561Z,20.12
2018-05-13T21:24:33.063Z,20.12
2018-05-13T21:27:00.939Z,20.16
2018-05-13T21:29:28.328Z,20.02
2018-05-13T21:31:55.729Z,20.05
2018-05-13T21:34:23.155Z,19.92
2018-05-13T21:36:50.527Z,19.70
2018-05-13T21:39:17.909Z,19.85
2018-05-13T21:41:45.303Z,19.78
2018-05-13T21:44:12.690Z,19.97
2018-05-13T21:46:40.471Z,19.98
2018-05-13T21:49:08.027Z,20.17
2018-05-13T21:51:35.415Z,20.29
2018-05-13T21:54:02.800Z,20.25
2018-05-13T21:56:30.175Z,20.37
2018-05-13T21:58:57.786Z,20.51
2018-05-13T22:01:25.161Z,20.37
2018-05-13T22:03:52.559Z,20.18
2018-05-13T22:06:19.961Z,20.07
2018-05-13T22:08:47.349Z,20.30
2018-05-13T22:11:14.943Z,20.04
2018-05-13T22:13:42.344Z,20.19
2018-05-13T22:16:10.584Z,20.13
2018-05-13T22:18:38.195Z,19.92
2018-05-13T22:21:05.571Z,19.64
2018-05-13T22:23:32.961Z,19.66
2018-05-13T22:26:00.370Z,19.72
2018-05-13T22:28:27.771Z,19.74
2018-05-13T22:30:55.220Z,19.52
2018-05-13T22:33:22.603Z,19.64
2018-05-13T22:35:49.990Z,19.71
2018-05-13T22:38:17.373Z,19.83
2018-05-13T22:40:44.760Z,19.91
2018-05-13T22:43:12.131Z,19.70
2018-05-13T22:45:39.524Z,20.00
2018-05-13T22:48:06.904Z,19.89
2018-05-13T22:50:34.286Z,20.03
2018-05-13T22:53:01.748Z,19.79
2018-05-13T22:55:29.130Z,19.83
2018-05-13T22:57:56.519Z,19.68
2018-05-13T23:00:24.036Z,19.71
2018-05-13T23:02:51.299Z,19.75
2018-05-13T23:05:18.753Z,19.79
2018-05-13T23:07:46.078Z,19.68
2018-05-13T23:10:13.493Z,19.79
2018-05-13T23:12:40.927Z,19.79
2018-05-13T23:15:08.323Z,19.73
2018-05-13T23:17:35.693Z,19.85
2018-05-13T23:20:03.088Z,19.47
2018-05-13T23:22:36.087Z,19.39
2018-05-13T23:25:03.528Z,19.34
2018-05-13T23:27:30.891Z,19.26
2018-05-13T23:29:58.294Z,19.35
2018-05-13T23:32:25.692Z,19.28
2018-05-13T23:34:53.070Z,19.09
2018-05-13T23:37:20.455Z,19.28
2018-05-13T23:39:47.853Z,19.20
2018-05-13T23:42:15.243Z,19.17
2018-05-13T23:44:42.693Z,19.14
2018-05-13T23:47:10.972Z,19.19
2018-05-13T23:49:38.366Z,19.25
2018-05-13T23:52:05.739Z,19.26
2018-05-13T23:54:33.127Z,19.33
2018-05-13T23:57:00.498Z,19.36
2018-05-13T23:59:27.882Z,19.35
